createdAt,value
2023-04-12T00:00:58.050Z,97723.47
2023-04-12T00:03:25.374Z,97722.88
2023-04-12T00:05:55.045Z,97704.97
2023-04-12T00:08:26.525Z,97702.13
2023-04-12T00:10:53.241Z,97697.63
2023-04-12T00:13:19.829Z,97688.06
2023-04-12T00:15:46.461Z,97681.59
2023-04-12T00:18:12.997Z,97676.28
2023-04-12T00:20:44.405Z,97668.41
2023-04-12T00:23:21.847Z,97659.91
2023-04-12T00:25:48.498Z,97656.94
2023-04-12T00:28:18.222Z,97661.97
2023-04-12T00:30:47.271Z,97657.97
2023-04-12T00:33:13.826Z,97659.06
2023-04-12T00:35:44.611Z,97650.22
2023-04-12T00:38:11.417Z,97649.00
2023-04-12T00:40:44.710Z,97646.16
2023-04-12T00:43:23.500Z,97642.84
2023-04-12T00:45:50.288Z,97648.38
2023-04-12T00:48:17.396Z,97651.00
2023-04-12T00:50:49.261Z,97640.22
2023-04-12T00:53:17.623Z,97626.63
2023-04-12T00:55:57.264Z,97621.81
2023-04-12T00:58:26.626Z,97619.38
2023-04-12T01:00:54.689Z,97618.06
2023-04-12T01:03:24.154Z,97617.13
2023-04-12T01:06:27.012Z,97609.84
2023-04-12T01:09:12.343Z,97600.44
2023-04-12T01:11:48.799Z,97615.50
2023-04-12T01:14:35.478Z,97592.94
2023-04-12T01:17:07.333Z,97595.94
2023-04-12T01:20:17.049Z,97593.81
2023-04-12T01:23:28.269Z,97582.97
2023-04-12T01:26:26.625Z,97579.59
2023-04-12T01:29:01.067Z,97577.41
2023-04-12T01:31:31.206Z,97575.72
2023-04-12T01:34:07.802Z,97566.34
2023-04-12T01:36:37.408Z,97566.69
2023-04-12T01:39:08.124Z,97559.63
2023-04-12T01:41:41.719Z,97549.03
2023-04-12T01:44:08.263Z,97551.19
2023-04-12T01:46:37.427Z,97548.81
2023-04-12T01:49:04.393Z,97540.19
2023-04-12T01:51:58.329Z,97529.94
2023-04-12T01:54:30.167Z,97532.31
2023-04-12T01:57:03.665Z,97531.72
2023-04-12T01:59:43.349Z,97527.31
2023-04-12T02:02:12.978Z,97528.88
2023-04-12T02:04:42.080Z,97517.03
2023-04-12T02:07:09.449Z,97520.03
2023-04-12T02:09:39.615Z,97519.56
2023-04-12T02:12:07.662Z,97512.53
2023-04-12T02:14:34.538Z,97497.34
2023-04-12T02:17:02.411Z,97492.69
2023-04-12T02:19:29.055Z,97486.03
2023-04-12T02:21:55.617Z,97476.59
2023-04-12T02:24:22.184Z,97472.53
2023-04-12T02:26:51.636Z,97478.00
2023-04-12T02:29:18.119Z,97462.00
2023-04-12T02:31:44.591Z,97454.72
2023-04-12T02:34:13.222Z,97440.50
2023-04-12T02:36:39.711Z,97444.59
2023-04-12T02:39:07.266Z,97440.41
2023-04-12T02:41:33.817Z,97443.72
2023-04-12T02:44:02.555Z,97439.34
2023-04-12T02:46:29.217Z,97432.38
2023-04-12T02:48:55.762Z,97417.47
2023-04-12T02:51:22.485Z,97406.84
2023-04-12T02:53:48.957Z,97395.56
2023-04-12T02:56:18.930Z,97397.72
2023-04-12T02:58:45.788Z,97396.50
2023-04-12T03:01:13.013Z,97400.56
2023-04-12T03:03:42.414Z,97399.69
2023-04-12T03:06:09.546Z,97394.78
2023-04-12T03:08:38.729Z,97382.88
2023-04-12T03:11:05.482Z,97381.81
2023-04-12T03:13:31.959Z,97377.66
2023-04-12T03:16:00.071Z,97365.72
2023-04-12T03:18:26.727Z,97367.50
2023-04-12T03:20:53.315Z,97356.38
2023-04-12T03:23:20.452Z,97346.34
2023-04-12T03:25:47.066Z,97334.50
2023-04-12T03:28:13.588Z,97338.66
2023-04-12T03:30:40.225Z,97333.63
2023-04-12T03:33:09.671Z,97324.66
2023-04-12T03:35:36.264Z,97311.06
2023-04-12T03:38:05.127Z,97313.25
2023-04-12T03:40:31.645Z,97294.50
2023-04-12T03:42:59.887Z,97292.06
2023-04-12T03:45:27.933Z,97282.13
2023-04-12T03:47:54.604Z,97279.81
2023-04-12T03:50:22.459Z,97273.41
2023-04-12T03:52:48.982Z,97271.63
2023-04-12T03:55:18.096Z,97263.47
2023-04-12T03:57:44.567Z,97247.31
2023-04-12T04:00:12.371Z,97248.63
2023-04-12T04:02:39.093Z,97245.03
2023-04-12T04:05:06.031Z,97237.09
2023-04-12T04:07:33.393Z,97235.72
2023-04-12T04:10:00.057Z,97233.59
2023-04-12T04:12:27.973Z,97233.03
2023-04-12T04:14:54.507Z,97232.47
2023-04-12T04:17:21.008Z,97234.38
2023-04-12T04:19:47.484Z,97232.09
2023-04-12T04:22:13.995Z,97222.13
2023-04-12T04:24:40.481Z,97212.72
2023-04-12T04:27:06.992Z,97212.38
2023-04-12T04:29:33.777Z,97195.56
2023-04-12T04:32:00.496Z,97186.47
2023-04-12T04:34:27.046Z,97180.59
2023-04-12T04:36:53.501Z,97186.28
2023-04-12T04:39:20.079Z,97176.16
2023-04-12T04:41:46.544Z,97176.25
2023-04-12T04:44:13.267Z,97176.84
2023-04-12T04:46:39.831Z,97167.06
2023-04-12T04:49:06.948Z,97175.22
2023-04-12T04:51:33.438Z,97151.41
2023-04-12T04:54:00.421Z,97145.91
2023-04-12T04:56:27.016Z,97133.94
2023-04-12T04:58:56.097Z,97120.75
2023-04-12T05:01:28.071Z,97114.28
2023-04-12T05:03:55.660Z,97106.66
2023-04-12T05:06:22.866Z,97110.19
2023-04-12T05:08:49.390Z,97113.19
2023-04-12T05:11:15.895Z,97104.88
2023-04-12T05:13:42.442Z,97109.09
2023-04-12T05:16:09.444Z,97108.81
2023-04-12T05:18:36.221Z,97098.41
2023-04-12T05:21:06.464Z,97101.63
2023-04-12T05:23:41.729Z,97092.53
2023-04-12T05:26:08.217Z,97096.41
2023-04-12T05:28:34.712Z,97090.59
2023-04-12T05:31:01.243Z,97087.69
2023-04-12T05:33:27.812Z,97079.75
2023-04-12T05:35:54.388Z,97076.38
2023-04-12T05:38:20.978Z,97064.50
2023-04-12T05:40:49.912Z,97069.94
2023-04-12T05:43:17.718Z,97062.06
2023-04-12T05:45:44.314Z,97059.56
2023-04-12T05:48:10.946Z,97054.81
2023-04-12T05:50:37.690Z,97053.59
2023-04-12T05:53:04.185Z,97046.84
2023-04-12T05:55:30.751Z,97048.34
2023-04-12T05:57:58.432Z,97049.66
2023-04-12T06:00:25.050Z,97049.94
2023-04-12T06:02:52.226Z,97041.91
2023-04-12T06:05:19.450Z,97040.13
2023-04-12T06:07:49.194Z,97038.50
2023-04-12T06:10:17.402Z,97029.53
2023-04-12T06:12:44.931Z,97025.81
2023-04-12T06:15:11.773Z,97024.72
2023-04-12T06:17:38.524Z,97023.47
2023-04-12T06:20:09.133Z,97032.06
2023-04-12T06:22:36.980Z,97015.59
2023-04-12T06:25:03.895Z,97014.66
2023-04-12T06:27:30.975Z,97020.34
2023-04-12T06:29:58.186Z,97010.75
2023-04-12T06:32:25.069Z,97017.53
2023-04-12T06:34:53.645Z,97007.59
2023-04-12T06:37:21.765Z,97000.16
2023-04-12T06:39:48.252Z,96994.47
2023-04-12T06:42:15.649Z,96988.00
2023-04-12T06:44:42.296Z,96988.66
2023-04-12T06:47:09.452Z,96985.38
2023-04-12T06:49:36.117Z,96980.56
2023-04-12T06:52:02.679Z,96975.72
2023-04-12T06:54:29.173Z,96972.41
2023-04-12T06:56:57.199Z,96970.34
2023-04-12T06:59:23.796Z,96970.47
2023-04-12T07:01:50.290Z,96957.19
2023-04-12T07:04:17.002Z,96949.03
2023-04-12T07:06:43.648Z,96954.56
2023-04-12T07:09:10.256Z,96942.69
2023-04-12T07:11:36.860Z,96935.38
2023-04-12T07:14:03.413Z,96933.69
2023-04-12T07:16:33.889Z,96923.03
2023-04-12T07:19:00.794Z,96916.53
2023-04-12T07:21:28.055Z,96920.28
2023-04-12T07:23:55.810Z,96914.09
2023-04-12T07:26:22.609Z,96908.00
2023-04-12T07:28:49.136Z,96905.50
2023-04-12T07:31:15.808Z,96890.88
2023-04-12T07:33:43.437Z,96895.44
2023-04-12T07:36:11.475Z,96887.97
2023-04-12T07:38:38.023Z,96877.84
2023-04-12T07:41:04.851Z,96890.28
2023-04-12T07:43:31.481Z,96884.22
2023-04-12T07:45:58.795Z,96876.31
2023-04-12T07:48:25.318Z,96881.72
2023-04-12T07:50:51.856Z,96867.75
2023-04-12T07:53:27.507Z,96866.50
2023-04-12T07:55:56.057Z,96858.59
2023-04-12T07:58:24.169Z,96862.47
2023-04-12T08:00:51.657Z,96859.28
2023-04-12T08:03:19.415Z,96853.19
2023-04-12T08:05:49.264Z,96848.72
2023-04-12T08:08:16.146Z,96840.72
2023-04-12T08:10:42.749Z,96841.81
2023-04-12T08:13:09.268Z,96836.56
2023-04-12T08:15:36.261Z,96836.50
2023-04-12T08:18:02.836Z,96825.75
2023-04-12T08:20:29.681Z,96825.75
2023-04-12T08:22:56.365Z,96825.16
2023-04-12T08:25:23.421Z,96819.81
2023-04-12T08:27:51.471Z,96826.31
2023-04-12T08:30:19.326Z,96822.66
2023-04-12T08:32:46.024Z,96814.66
2023-04-12T08:35:15.069Z,96817.38
2023-04-12T08:37:41.914Z,96815.00
2023-04-12T08:40:09.166Z,96806.84
2023-04-12T08:42:37.273Z,96805.31
2023-04-12T08:45:09.262Z,96801.31
2023-04-12T08:47:40.239Z,96804.06
2023-04-12T08:50:09.537Z,96792.22
2023-04-12T08:52:37.887Z,96784.22
2023-04-12T08:55:06.692Z,96788.00
2023-04-12T08:57:36.057Z,96779.94
2023-04-12T09:00:04.250Z,96772.44
2023-04-12T09:02:31.437Z,96772.44
2023-04-12T09:04:58.494Z,96772.59
2023-04-12T09:07:28.696Z,96772.97
2023-04-12T09:09:56.822Z,96765.13
2023-04-12T09:12:27.132Z,96753.28
2023-04-12T09:15:12.683Z,96760.97
2023-04-12T09:17:41.897Z,96745.28
2023-04-12T09:20:17.789Z,96737.78
2023-04-12T09:22:46.528Z,96738.88
2023-04-12T09:25:15.593Z,96747.47
2023-04-12T09:27:50.745Z,96742.13
2023-04-12T09:30:19.881Z,96744.72
2023-04-12T09:32:50.927Z,96750.34
2023-04-12T09:35:17.789Z,96742.66
2023-04-12T09:37:44.331Z,96742.75
2023-04-12T09:40:11.429Z,96724.72
2023-04-12T09:42:53.409Z,96727.13
2023-04-12T09:45:24.264Z,96718.34
2023-04-12T09:47:51.607Z,96715.84
2023-04-12T09:50:29.935Z,96715.56
2023-04-12T09:52:58.291Z,96713.28
2023-04-12T09:55:27.907Z,96715.25
2023-04-12T09:57:55.983Z,96712.41
2023-04-12T10:00:26.602Z,96709.97
2023-04-12T10:02:55.561Z,96708.25
2023-04-12T10:05:25.683Z,96706.59
2023-04-12T10:07:53.146Z,96710.69
2023-04-12T10:10:21.056Z,96721.22
2023-04-12T10:12:49.051Z,96713.22
2023-04-12T10:15:17.827Z,96710.66
2023-04-12T10:17:47.522Z,96707.19
2023-04-12T10:20:17.224Z,96709.09
2023-04-12T10:22:49.881Z,96712.53
2023-04-12T10:25:23.776Z,96697.25
2023-04-12T10:27:50.713Z,96708.22
2023-04-12T10:30:24.141Z,96701.72
2023-04-12T10:33:16.577Z,96696.22
2023-04-12T10:36:03.981Z,96686.25
2023-04-12T10:38:37.304Z,96690.78
2023-04-12T10:41:25.151Z,96684.66
2023-04-12T10:43:52.332Z,96687.16
2023-04-12T10:46:37.893Z,96683.47
2023-04-12T10:49:17.613Z,96675.06
2023-04-12T10:52:12.709Z,96673.28
2023-04-12T10:54:39.608Z,96676.28
2023-04-12T10:57:07.573Z,96671.31
2023-04-12T10:59:55.880Z,96669.03
2023-04-12T11:02:23.268Z,96669.03
2023-04-12T11:05:10.908Z,96666.72
2023-04-12T11:07:44.247Z,96668.03
2023-04-12T11:10:20.079Z,96665.88
2023-04-12T11:12:57.056Z,96661.75
2023-04-12T11:15:27.851Z,96658.44
2023-04-12T11:17:56.655Z,96666.88
2023-04-12T11:20:27.039Z,96662.72
2023-04-12T11:22:54.741Z,96652.97
2023-04-12T11:25:21.496Z,96658.94
2023-04-12T11:27:53.386Z,96661.94
2023-04-12T11:30:20.621Z,96650.84
2023-04-12T11:32:47.546Z,96658.78
2023-04-12T11:35:19.521Z,96651.81
2023-04-12T11:37:46.540Z,96652.25
2023-04-12T11:40:13.242Z,96657.03
2023-04-12T11:42:40.878Z,96651.34
2023-04-12T11:45:15.943Z,96649.31
2023-04-12T11:47:45.988Z,96652.06
2023-04-12T11:50:12.835Z,96649.69
2023-04-12T11:52:41.056Z,96638.03
2023-04-12T11:55:10.857Z,96637.97
2023-04-12T11:57:38.849Z,96637.25
2023-04-12T12:00:06.886Z,96643.22
2023-04-12T12:02:41.040Z,96642.75
2023-04-12T12:05:11.170Z,96637.97
2023-04-12T12:07:38.465Z,96634.19
2023-04-12T12:10:06.812Z,96640.78
2023-04-12T12:12:34.904Z,96635.66
2023-04-12T12:15:02.629Z,96623.38
2023-04-12T12:17:29.385Z,96620.25
2023-04-12T12:19:59.305Z,96625.38
2023-04-12T12:22:26.037Z,96621.56
2023-04-12T12:24:57.856Z,96620.25
2023-04-12T12:27:34.400Z,96617.31
2023-04-12T12:30:04.348Z,96630.06
2023-04-12T12:32:37.001Z,96624.44
2023-04-12T12:35:09.804Z,96630.41
2023-04-12T12:37:37.005Z,96625.59
2023-04-12T12:40:14.163Z,96616.34
2023-04-12T12:42:55.792Z,96619.69
2023-04-12T12:45:24.551Z,96626.09
2023-04-12T12:47:53.416Z,96619.16
2023-04-12T12:50:25.192Z,96611.59
2023-04-12T12:52:53.101Z,96615.63
2023-04-12T12:55:21.328Z,96618.16
2023-04-12T12:58:06.047Z,96613.72
2023-04-12T13:00:34.551Z,96620.09
2023-04-12T13:03:01.749Z,96616.09
2023-04-12T13:05:28.637Z,96614.69
2023-04-12T13:07:55.158Z,96625.84
2023-04-12T13:10:21.684Z,96628.78
2023-04-12T13:12:48.202Z,96617.81
2023-04-12T13:15:22.169Z,96617.81
2023-04-12T13:17:53.010Z,96627.97
2023-04-12T13:20:19.689Z,96625.38
2023-04-12T13:22:46.330Z,96622.66
2023-04-12T13:25:12.838Z,96638.56
2023-04-12T13:27:39.377Z,96639.59
2023-04-12T13:30:07.080Z,96636.50
2023-04-12T13:32:33.728Z,96634.78
2023-04-12T13:35:00.580Z,96641.75
2023-04-12T13:37:27.092Z,96648.13
2023-04-12T13:39:53.660Z,96649.19
2023-04-12T13:42:20.224Z,96660.88
2023-04-12T13:44:48.522Z,96657.28
2023-04-12T13:47:16.298Z,96660.25
2023-04-12T13:49:42.782Z,96660.25
2023-04-12T13:52:09.377Z,96663.22
2023-04-12T13:54:36.231Z,96670.16
2023-04-12T13:57:03.915Z,96670.16
2023-04-12T13:59:30.650Z,96670.84
2023-04-12T14:01:57.177Z,96659.56
2023-04-12T14:04:27.630Z,96642.78
2023-04-12T14:06:54.218Z,96649.25
2023-04-12T14:09:28.457Z,96639.84
2023-04-12T14:11:57.897Z,96642.59
2023-04-12T14:14:26.227Z,96640.66
2023-04-12T14:16:57.632Z,96637.09
2023-04-12T14:19:25.114Z,96642.41
2023-04-12T14:21:51.889Z,96632.69
2023-04-12T14:24:20.778Z,96622.78
2023-04-12T14:26:48.427Z,96623.75
2023-04-12T14:29:16.119Z,96627.91
2023-04-12T14:31:42.696Z,96620.44
2023-04-12T14:34:09.445Z,96620.94
2023-04-12T14:36:36.427Z,96617.38
2023-04-12T14:39:03.938Z,96609.13
2023-04-12T14:41:33.615Z,96623.53
2023-04-12T14:44:01.115Z,96637.44
2023-04-12T14:46:28.609Z,96628.94
2023-04-12T14:48:57.099Z,96631.81
2023-04-12T14:51:24.127Z,96634.19
2023-04-12T14:53:50.924Z,96640.44
2023-04-12T14:56:23.995Z,96646.22
2023-04-12T14:58:55.600Z,96635.63
2023-04-12T15:01:23.643Z,96639.59
2023-04-12T15:03:53.895Z,96649.47
2023-04-12T15:06:25.905Z,96647.34
2023-04-12T15:08:54.286Z,96638.84
2023-04-12T15:11:22.162Z,96635.81
2023-04-12T15:13:49.856Z,96638.44
2023-04-12T15:16:16.722Z,96635.22
2023-04-12T15:18:43.240Z,96639.34
2023-04-12T15:21:11.629Z,96636.03
2023-04-12T15:23:41.307Z,96631.31
2023-04-12T15:26:09.228Z,96627.53
2023-04-12T15:28:36.575Z,96622.63
2023-04-12T15:31:04.365Z,96620.38
2023-04-12T15:33:34.220Z,96621.72
2023-04-12T15:36:04.866Z,96627.75
2023-04-12T15:38:31.947Z,96626.47
2023-04-12T15:41:01.741Z,96626.84
2023-04-12T15:43:28.858Z,96616.28
2023-04-12T15:45:56.087Z,96612.88
2023-04-12T15:48:24.972Z,96627.06
2023-04-12T15:50:53.452Z,96624.34
2023-04-12T15:53:22.974Z,96627.16
2023-04-12T15:55:54.762Z,96626.75
2023-04-12T15:58:27.519Z,96616.84
2023-04-12T16:00:54.619Z,96619.44
2023-04-12T16:03:26.120Z,96616.59
2023-04-12T16:05:53.548Z,96622.63
2023-04-12T16:08:22.035Z,96624.34
2023-04-12T16:10:50.762Z,96636.00
2023-04-12T16:13:18.158Z,96643.06
2023-04-12T16:15:45.225Z,96643.78
2023-04-12T16:18:11.955Z,96637.19
2023-04-12T16:20:40.623Z,96639.44
2023-04-12T16:23:07.707Z,96646.22
2023-04-12T16:25:35.692Z,96654.84
2023-04-12T16:28:02.582Z,96670.72
2023-04-12T16:30:32.519Z,96701.69
2023-04-12T16:32:59.508Z,96753.97
2023-04-12T16:35:26.466Z,96762.66
2023-04-12T16:37:52.990Z,96807.09
2023-04-12T16:40:20.323Z,96824.06
2023-04-12T16:42:46.958Z,96812.81
2023-04-12T16:45:16.637Z,96818.94
2023-04-12T16:47:46.953Z,96807.84
2023-04-12T16:50:13.815Z,96803.81
2023-04-12T16:52:41.237Z,96803.69
2023-04-12T16:55:11.711Z,96795.41
2023-04-12T16:57:42.702Z,96798.72
2023-04-12T17:00:22.193Z,96799.53
2023-04-12T17:02:51.362Z,96792.31
2023-04-12T17:05:20.067Z,96800.53
2023-04-12T17:07:53.374Z,96803.97
2023-04-12T17:10:22.935Z,96797.91
2023-04-12T17:12:53.114Z,96804.81
2023-04-12T17:15:21.836Z,96796.94
2023-04-12T17:17:59.638Z,96796.50
2023-04-12T17:20:27.041Z,96800.66
2023-04-12T17:22:55.498Z,96804.53
2023-04-12T17:25:24.562Z,96803.44
2023-04-12T17:27:53.428Z,96801.78
2023-04-12T17:30:19.983Z,96824.84
2023-04-12T17:32:49.765Z,96831.63
2023-04-12T17:35:17.688Z,96836.19
2023-04-12T17:37:45.456Z,96844.63
2023-04-12T17:40:12.876Z,96850.31
2023-04-12T17:42:41.896Z,96849.06
2023-04-12T17:45:12.384Z,96852.78
2023-04-12T17:47:43.108Z,96851.53
2023-04-12T17:50:11.546Z,96841.59
2023-04-12T17:52:38.711Z,96832.47
2023-04-12T17:55:08.984Z,96839.94
2023-04-12T17:57:35.567Z,96839.59
2023-04-12T18:00:02.138Z,96847.63
2023-04-12T18:02:28.940Z,96859.38
2023-04-12T18:04:55.641Z,96841.81
2023-04-12T18:07:22.921Z,96845.00
2023-04-12T18:09:50.701Z,96855.78
2023-04-12T18:12:17.383Z,96853.72
2023-04-12T18:14:43.954Z,96864.22
2023-04-12T18:17:10.666Z,96855.91
2023-04-12T18:19:37.223Z,96865.03
2023-04-12T18:22:03.879Z,96862.53
2023-04-12T18:24:30.795Z,96852.53
2023-04-12T18:26:59.087Z,96856.22
2023-04-12T18:29:26.334Z,96860.25
2023-04-12T18:31:53.199Z,96872.28
2023-04-12T18:34:19.981Z,96882.78
2023-04-12T18:36:46.938Z,96892.69
2023-04-12T18:39:13.479Z,96890.16
2023-04-12T18:41:43.296Z,96872.13
2023-04-12T18:44:11.146Z,96879.91
2023-04-12T18:46:37.827Z,96891.34
2023-04-12T18:49:04.509Z,96897.69
2023-04-12T18:51:32.824Z,96907.84
2023-04-12T18:54:00.870Z,96897.75
2023-04-12T18:56:27.916Z,96894.03
2023-04-12T18:58:56.303Z,96902.47
2023-04-12T19:01:24.584Z,96899.91
2023-04-12T19:03:52.233Z,96906.44
2023-04-12T19:06:19.457Z,96899.06
2023-04-12T19:08:46.062Z,96904.56
2023-04-12T19:11:12.602Z,96910.72
2023-04-12T19:13:39.366Z,96912.13
2023-04-12T19:16:09.253Z,96916.91
2023-04-12T19:18:36.054Z,96913.31
2023-04-12T19:21:03.322Z,96921.63
2023-04-12T19:23:31.230Z,96922.34
2023-04-12T19:26:00.038Z,96929.09
2023-04-12T19:28:27.911Z,96926.66
2023-04-12T19:30:57.110Z,96929.47
2023-04-12T19:33:24.601Z,96924.28
2023-04-12T19:35:52.031Z,96933.47
2023-04-12T19:38:20.920Z,96924.28
2023-04-12T19:40:47.583Z,96922.84
2023-04-12T19:43:14.869Z,96923.69
2023-04-12T19:45:42.169Z,96925.38
2023-04-12T19:48:09.049Z,96924.41
2023-04-12T19:50:36.160Z,96920.00
2023-04-12T19:53:02.926Z,96914.88
2023-04-12T19:55:30.322Z,96911.28
2023-04-12T19:57:56.779Z,96915.72
2023-04-12T20:00:25.200Z,96919.59
2023-04-12T20:02:53.755Z,96918.69
2023-04-12T20:05:22.332Z,96921.00
2023-04-12T20:07:49.696Z,96916.97
2023-04-12T20:10:16.522Z,96912.31
2023-04-12T20:12:43.214Z,96918.16
2023-04-12T20:15:11.738Z,96923.88
2023-04-12T20:17:43.663Z,96914.59
2023-04-12T20:20:12.526Z,96915.31
2023-04-12T20:22:43.323Z,96914.38
2023-04-12T20:25:10.810Z,96924.03
2023-04-12T20:27:38.893Z,96917.88
2023-04-12T20:30:08.658Z,96910.56
2023-04-12T20:32:35.841Z,96916.25
2023-04-12T20:35:06.563Z,96914.59
2023-04-12T20:37:33.707Z,96914.09
2023-04-12T20:40:00.698Z,96911.09
2023-04-12T20:42:27.221Z,96913.59
2023-04-12T20:44:53.744Z,96911.59
2023-04-12T20:47:20.991Z,96913.28
2023-04-12T20:49:47.431Z,96921.38
2023-04-12T20:52:16.875Z,96925.69
2023-04-12T20:54:45.477Z,96918.69
2023-04-12T20:57:13.015Z,96915.63
2023-04-12T20:59:39.736Z,96923.09
2023-04-12T21:02:07.047Z,96921.06
2023-04-12T21:04:35.958Z,96922.28
2023-04-12T21:07:03.167Z,96924.63
2023-04-12T21:09:30.050Z,96920.56
2023-04-12T21:11:57.801Z,96926.63
2023-04-12T21:14:24.393Z,96920.56
2023-04-12T21:16:50.905Z,96921.78
2023-04-12T21:19:18.364Z,96927.84
2023-04-12T21:21:46.025Z,96929.03
2023-04-12T21:24:13.147Z,96927.38
2023-04-12T21:26:40.123Z,96925.38
2023-04-12T21:29:06.620Z,96929.19
2023-04-12T21:31:33.467Z,96932.03
2023-04-12T21:34:00.019Z,96925.16
2023-04-12T21:36:30.197Z,96920.16
2023-04-12T21:38:59.587Z,96917.97
2023-04-12T21:41:26.364Z,96919.22
2023-04-12T21:43:52.882Z,96912.06
2023-04-12T21:46:19.794Z,96916.00
2023-04-12T21:48:46.355Z,96906.38
2023-04-12T21:51:12.895Z,96907.66
2023-04-12T21:53:42.201Z,96917.66
2023-04-12T21:56:09.504Z,96920.28
2023-04-12T21:58:36.046Z,96920.28
2023-04-12T22:01:03.785Z,96921.00
2023-04-12T22:03:30.398Z,96920.66
2023-04-12T22:06:04.427Z,96931.34
2023-04-12T22:08:32.700Z,96930.88
2023-04-12T22:11:00.102Z,96919.09
2023-04-12T22:13:27.131Z,96926.69
2023-04-12T22:15:53.715Z,96932.88
2023-04-12T22:18:20.439Z,96930.72
2023-04-12T22:20:47.828Z,96933.22
2023-04-12T22:23:17.704Z,96928.59
2023-04-12T22:25:45.429Z,96925.38
2023-04-12T22:28:12.296Z,96926.09
2023-04-12T22:30:38.960Z,96917.66
2023-04-12T22:33:05.691Z,96921.41
2023-04-12T22:35:35.060Z,96918.56
2023-04-12T22:38:01.662Z,96926.66
2023-04-12T22:40:28.169Z,96930.91
2023-04-12T22:42:55.970Z,96933.16
2023-04-12T22:45:22.517Z,96932.69
2023-04-12T22:47:49.027Z,96935.31
2023-04-12T22:50:15.582Z,96929.84
2023-04-12T22:52:42.201Z,96931.75
2023-04-12T22:55:12.728Z,96930.09
2023-04-12T22:57:39.268Z,96932.69
2023-04-12T23:00:06.789Z,96934.06
2023-04-12T23:02:33.991Z,96927.38
2023-04-12T23:05:02.322Z,96913.94
2023-04-12T23:07:30.048Z,96911.47
2023-04-12T23:09:57.691Z,96920.38
2023-04-12T23:12:24.968Z,96913.78
2023-04-12T23:14:55.392Z,96915.44
2023-04-12T23:17:22.080Z,96916.41
2023-04-12T23:19:50.458Z,96912.31
2023-04-12T23:22:44.558Z,96911.31
2023-04-12T23:25:41.494Z,96915.19
2023-04-12T23:28:14.112Z,96902.59
2023-04-12T23:30:49.809Z,96901.53
2023-04-12T23:33:20.039Z,96893.03
2023-04-12T23:35:52.030Z,96887.03
2023-04-12T23:38:32.120Z,96884.16
2023-04-12T23:41:03.877Z,96892.00
2023-04-12T23:43:34.193Z,96893.59
2023-04-12T23:46:03.013Z,96892.94
2023-04-12T23:48:32.058Z,96886.25
2023-04-12T23:50:59.700Z,96882.50
2023-04-12T23:53:26.574Z,96893.88
2023-04-12T23:55:53.647Z,96880.31
2023-04-12T23:58:21.070Z,96872.50
